Time;durP1;ratioP1;P1;durP2;ratioP2;P2;SDS_P1;SDS_P2;PMS_P1;PMS_P2;Temp;Humidity;BMP_temperature;BMP_pressure;BME280_temperature;BME280_humidity;BME280_pressure;Samples;Min_cycle;Max_cycle;Signal;HPM_P1;HPM_P2
2021/07/29 00:00:37;;;;;;;2.40;1.30;;;;;;;;;;4985707;28;20125;-73
2021/07/29 00:03:03;;;;;;;7.63;1.33;;;;;;;;;;4992380;28;20117;-73
2021/07/29 00:05:30;;;;;;;5.95;1.05;;;;;;;;;;4992912;28;20026;-74
2021/07/29 00:07:56;;;;;;;5.63;1.52;;;;;;;;;;4990264;28;20038;-73
2021/07/29 00:10:22;;;;;;;8.02;1.38;;;;;;;;;;4974911;28;20039;-76
2021/07/29 00:12:48;;;;;;;4.50;1.25;;;;;;;;;;4986307;28;20105;-75
2021/07/29 00:15:16;;;;;;;6.90;1.60;;;;;;;;;;4983665;28;20027;-73
2021/07/29 00:20:16;;;;;;;7.20;1.73;;;;;;;;;;4987113;28;20570;-75
2021/07/29 00:22:42;;;;;;;3.90;1.17;;;;;;;;;;4986334;28;20038;-76
2021/07/29 00:25:12;;;;;;;8.38;1.60;;;;;;;;;;4985896;28;20385;-74
2021/07/29 00:27:47;;;;;;;6.45;1.88;;;;;;;;;;4987221;28;20026;-73
2021/07/29 00:30:15;;;;;;;14.80;1.85;;;;;;;;;;4987931;28;20042;-76
2021/07/29 00:32:44;;;;;;;8.32;1.65;;;;;;;;;;4991671;28;20570;-74
2021/07/29 00:35:14;;;;;;;6.95;1.23;;;;;;;;;;4976022;28;20058;-73
2021/07/29 00:37:41;;;;;;;7.13;2.17;;;;;;;;;;4980702;28;20034;-74
2021/07/29 00:40:07;;;;;;;3.13;1.13;;;;;;;;;;4987423;28;20398;-75
2021/07/29 00:42:33;;;;;;;5.93;1.63;;;;;;;;;;4982059;28;20034;-74
2021/07/29 00:44:58;;;;;;;3.17;1.02;;;;;;;;;;5000056;28;20031;-73
2021/07/29 00:47:24;;;;;;;3.28;1.30;;;;;;;;;;4982942;28;20065;-74
2021/07/29 00:49:50;;;;;;;8.85;2.28;;;;;;;;;;4986206;28;20038;-74
2021/07/29 00:52:19;;;;;;;5.65;1.10;;;;;;;;;;4988158;28;20042;-73
2021/07/29 00:54:45;;;;;;;4.63;1.30;;;;;;;;;;4986671;28;20064;-72
2021/07/29 00:57:11;;;;;;;15.75;2.20;;;;;;;;;;4987912;28;20058;-73
2021/07/29 00:59:38;;;;;;;12.10;1.50;;;;;;;;;;4981818;28;20144;-74
2021/07/29 01:02:03;;;;;;;6.07;1.45;;;;;;;;;;4968866;28;20019;-74
2021/07/29 01:04:29;;;;;;;9.43;1.63;;;;;;;;;;4985568;28;20030;-73
2021/07/29 01:06:55;;;;;;;8.23;1.70;;;;;;;;;;4988263;28;20057;-73
2021/07/29 01:09:21;;;;;;;9.07;1.80;;;;;;;;;;4984949;28;20030;-72
2021/07/29 01:11:46;;;;;;;9.13;1.75;;;;;;;;;;4985592;28;20030;-74
2021/07/29 01:14:13;;;;;;;4.32;1.42;;;;;;;;;;4982575;28;20397;-73
2021/07/29 01:16:39;;;;;;;7.93;1.33;;;;;;;;;;4948954;28;20034;-73
2021/07/29 01:19:06;;;;;;;12.85;2.15;;;;;;;;;;4995004;28;20694;-72
2021/07/29 01:21:33;;;;;;;10.10;1.50;;;;;;;;;;4987318;28;20035;-74
2021/07/29 01:23:59;;;;;;;7.25;1.50;;;;;;;;;;4986378;28;20041;-74
2021/07/29 01:26:27;;;;;;;3.38;1.40;;;;;;;;;;4985982;28;20419;-74
2021/07/29 01:28:53;;;;;;;7.70;1.73;;;;;;;;;;4981531;28;20049;-73
2021/07/29 01:31:18;;;;;;;7.63;1.65;;;;;;;;;;4983004;28;20030;-75
2021/07/29 01:33:44;;;;;;;10.40;1.45;;;;;;;;;;4981819;28;20067;-74
2021/07/29 01:36:09;;;;;;;11.10;1.77;;;;;;;;;;4967267;28;20026;-74
2021/07/29 01:38:35;;;;;;;4.38;1.20;;;;;;;;;;4986198;28;20090;-75
2021/07/29 01:41:02;;;;;;;3.42;1.60;;;;;;;;;;4980368;28;20047;-75
2021/07/29 01:43:28;;;;;;;9.23;1.60;;;;;;;;;;4972947;28;20044;-75
2021/07/29 01:45:54;;;;;;;5.90;1.10;;;;;;;;;;4983212;28;20038;-75
2021/07/29 01:48:19;;;;;;;10.48;2.20;;;;;;;;;;4992163;28;20494;-76
2021/07/29 01:50:45;;;;;;;6.72;1.55;;;;;;;;;;4989354;28;20077;-75
2021/07/29 01:53:11;;;;;;;5.93;1.33;;;;;;;;;;4985807;28;20059;-74
2021/07/29 01:55:44;;;;;;;6.82;1.33;;;;;;;;;;4985745;28;20030;-74
2021/07/29 01:58:10;;;;;;;7.85;1.73;;;;;;;;;;4993521;28;20034;-74
2021/07/29 02:00:36;;;;;;;5.65;1.45;;;;;;;;;;4983819;28;20112;-74
2021/07/29 02:03:03;;;;;;;5.60;1.45;;;;;;;;;;4988108;28;20105;-74
2021/07/29 02:05:29;;;;;;;10.02;2.40;;;;;;;;;;4970469;28;20632;-75
2021/07/29 02:07:55;;;;;;;12.25;1.73;;;;;;;;;;4982584;28;20049;-74
2021/07/29 02:10:21;;;;;;;7.55;1.40;;;;;;;;;;4975070;28;20317;-75
2021/07/29 02:12:47;;;;;;;6.30;1.17;;;;;;;;;;4984884;28;20061;-75
2021/07/29 02:15:12;;;;;;;6.00;1.30;;;;;;;;;;4953243;28;20034;-74
2021/07/29 02:17:38;;;;;;;6.47;1.33;;;;;;;;;;4984786;28;20092;-73
2021/07/29 02:20:04;;;;;;;6.55;1.30;;;;;;;;;;4970408;28;20048;-75
2021/07/29 02:22:29;;;;;;;11.15;1.90;;;;;;;;;;4988511;28;20088;-74
2021/07/29 02:24:55;;;;;;;8.07;1.40;;;;;;;;;;4969160;28;20042;-74
2021/07/29 02:27:23;;;;;;;8.98;1.48;;;;;;;;;;4971964;28;20057;-74
2021/07/29 02:29:50;;;;;;;5.18;1.33;;;;;;;;;;4991637;28;20464;-74
2021/07/29 02:32:15;;;;;;;11.70;1.83;;;;;;;;;;4986670;28;20026;-75
2021/07/29 02:34:40;;;;;;;15.85;2.33;;;;;;;;;;4997036;28;20037;-75
2021/07/29 02:37:06;;;;;;;11.27;1.42;;;;;;;;;;4973030;28;20038;-74
2021/07/29 02:39:32;;;;;;;12.85;1.98;;;;;;;;;;5016504;28;20046;-73
2021/07/29 02:41:57;;;;;;;13.57;1.70;;;;;;;;;;4988835;28;20418;-75
2021/07/29 02:44:23;;;;;;;5.10;1.40;;;;;;;;;;4991359;28;20041;-73
2021/07/29 02:46:48;;;;;;;4.78;1.50;;;;;;;;;;4967440;28;20501;-75
2021/07/29 02:49:13;;;;;;;6.78;1.67;;;;;;;;;;4994834;28;20026;-75
2021/07/29 02:51:39;;;;;;;8.70;1.77;;;;;;;;;;4987641;28;20035;-74
2021/07/29 02:54:04;;;;;;;5.32;1.38;;;;;;;;;;4979225;28;20044;-73
2021/07/29 02:56:30;;;;;;;6.97;1.50;;;;;;;;;;4985055;28;20541;-74
2021/07/29 02:58:55;;;;;;;14.05;2.13;;;;;;;;;;4990553;28;20532;-75
2021/07/29 03:01:21;;;;;;;3.10;1.02;;;;;;;;;;4986667;28;20027;-75
2021/07/29 03:03:46;;;;;;;4.38;1.25;;;;;;;;;;4988783;28;20041;-74
2021/07/29 03:06:12;;;;;;;6.07;1.30;;;;;;;;;;4988858;28;20057;-75
2021/07/29 03:08:38;;;;;;;12.63;2.00;;;;;;;;;;4986832;28;20038;-74
2021/07/29 03:11:04;;;;;;;10.63;1.08;;;;;;;;;;4985764;28;20030;-75
2021/07/29 03:13:29;;;;;;;4.25;1.73;;;;;;;;;;4979733;28;20504;-78
2021/07/29 03:15:55;;;;;;;6.05;1.40;;;;;;;;;;4993755;28;20034;-78
2021/07/29 03:18:21;;;;;;;7.13;1.67;;;;;;;;;;4984770;28;20812;-79
2021/07/29 03:20:46;;;;;;;12.80;1.38;;;;;;;;;;4988070;28;20069;-79
2021/07/29 03:23:12;;;;;;;10.00;1.77;;;;;;;;;;4970237;28;20040;-79
2021/07/29 03:25:37;;;;;;;6.35;1.52;;;;;;;;;;4991932;28;20035;-78
2021/07/29 03:28:04;;;;;;;12.75;1.90;;;;;;;;;;4966449;28;20053;-78
2021/07/29 03:30:30;;;;;;;14.55;3.08;;;;;;;;;;4971696;28;20023;-78
2021/07/29 03:32:56;;;;;;;3.22;1.10;;;;;;;;;;4985026;28;20097;-79
2021/07/29 03:35:21;;;;;;;4.03;1.67;;;;;;;;;;4985669;28;20054;-78
2021/07/29 03:37:47;;;;;;;8.57;1.50;;;;;;;;;;4992543;28;20026;-78
2021/07/29 03:40:12;;;;;;;6.22;1.33;;;;;;;;;;4983664;28;20141;-78
2021/07/29 03:42:38;;;;;;;6.45;1.65;;;;;;;;;;4997025;28;20529;-78
2021/07/29 03:45:04;;;;;;;5.22;1.48;;;;;;;;;;4968385;28;20034;-79
2021/07/29 03:47:30;;;;;;;4.97;1.75;;;;;;;;;;4989645;28;20434;-79
2021/07/29 03:49:55;;;;;;;6.30;1.65;;;;;;;;;;4987305;28;20038;-78
2021/07/29 03:52:21;;;;;;;6.97;1.90;;;;;;;;;;4971410;28;20079;-77
2021/07/29 03:54:51;;;;;;;14.38;2.33;;;;;;;;;;4988349;28;20092;-78
2021/07/29 03:57:18;;;;;;;7.70;1.23;;;;;;;;;;4988407;28;20030;-77
2021/07/29 03:59:44;;;;;;;6.38;1.30;;;;;;;;;;4965462;28;20038;-78
2021/07/29 04:02:10;;;;;;;20.17;3.80;;;;;;;;;;4963243;28;20027;-78
2021/07/29 04:04:39;;;;;;;7.55;1.40;;;;;;;;;;4991170;28;20045;-78
2021/07/29 04:07:05;;;;;;;7.03;1.73;;;;;;;;;;4979344;28;20150;-78
2021/07/29 04:09:32;;;;;;;13.05;1.92;;;;;;;;;;4988618;28;20054;-79
2021/07/29 04:11:57;;;;;;;10.18;3.20;;;;;;;;;;4980962;28;20022;-77
2021/07/29 04:14:23;;;;;;;6.05;1.75;;;;;;;;;;4987881;28;20615;-74
2021/07/29 04:16:50;;;;;;;10.20;1.50;;;;;;;;;;4980367;28;20458;-74
2021/07/29 04:19:16;;;;;;;21.65;3.03;;;;;;;;;;4969954;28;20046;-74
2021/07/29 04:21:41;;;;;;;6.70;1.73;;;;;;;;;;4983752;28;20144;-74
2021/07/29 04:24:07;;;;;;;10.73;1.80;;;;;;;;;;4987829;28;20066;-74
2021/07/29 04:26:32;;;;;;;15.38;1.58;;;;;;;;;;4964987;28;20441;-73
2021/07/29 04:28:58;;;;;;;5.30;1.58;;;;;;;;;;4972184;28;20038;-75
2021/07/29 04:31:23;;;;;;;16.70;2.13;;;;;;;;;;4983834;28;20026;-73
2021/07/29 04:33:49;;;;;;;8.65;1.60;;;;;;;;;;4987497;28;20130;-75
2021/07/29 04:36:14;;;;;;;6.25;2.15;;;;;;;;;;4987777;28;20138;-75
2021/07/29 04:38:40;;;;;;;14.68;2.00;;;;;;;;;;4989814;28;20034;-76
2021/07/29 04:41:06;;;;;;;6.13;1.60;;;;;;;;;;4989930;28;20046;-75
2021/07/29 04:43:31;;;;;;;10.05;2.55;;;;;;;;;;4986260;28;20031;-78
2021/07/29 04:46:02;;;;;;;12.73;1.77;;;;;;;;;;4988341;28;20041;-77
2021/07/29 04:48:28;;;;;;;10.25;1.60;;;;;;;;;;4983707;28;20418;-78
2021/07/29 04:50:53;;;;;;;15.27;2.00;;;;;;;;;;4998133;28;20134;-78
2021/07/29 04:53:19;;;;;;;15.07;1.83;;;;;;;;;;4982500;28;20586;-78
2021/07/29 04:55:44;;;;;;;6.43;1.60;;;;;;;;;;4980734;28;20045;-78
2021/07/29 04:58:10;;;;;;;3.85;1.83;;;;;;;;;;4987499;28;20043;-78
2021/07/29 05:00:35;;;;;;;10.43;1.70;;;;;;;;;;4978704;28;20106;-79
2021/07/29 05:03:01;;;;;;;14.15;2.97;;;;;;;;;;4969410;28;20136;-80
2021/07/29 05:05:26;;;;;;;8.02;1.60;;;;;;;;;;4985756;28;20042;-79
2021/07/29 05:07:52;;;;;;;11.52;1.73;;;;;;;;;;4990690;28;20030;-78
2021/07/29 05:10:18;;;;;;;9.93;1.75;;;;;;;;;;4968377;28;20049;-78
2021/07/29 05:12:43;;;;;;;8.02;1.85;;;;;;;;;;4986507;28;20495;-73
2021/07/29 05:15:09;;;;;;;8.45;1.85;;;;;;;;;;4981636;28;20058;-73
2021/07/29 05:17:34;;;;;;;5.60;1.58;;;;;;;;;;4986535;28;20034;-75
2021/07/29 05:20:00;;;;;;;8.13;1.65;;;;;;;;;;4987726;28;20069;-74
2021/07/29 05:22:25;;;;;;;15.88;1.65;;;;;;;;;;4983787;28;20030;-74
2021/07/29 05:24:51;;;;;;;6.82;1.50;;;;;;;;;;4984870;28;20037;-74
2021/07/29 05:27:16;;;;;;;10.68;1.60;;;;;;;;;;4982448;28;20053;-73
2021/07/29 05:29:42;;;;;;;12.10;1.55;;;;;;;;;;4989771;28;20083;-74
2021/07/29 05:32:08;;;;;;;8.05;2.20;;;;;;;;;;4949934;28;20023;-75
2021/07/29 05:34:33;;;;;;;8.63;2.13;;;;;;;;;;4972579;28;20088;-75
2021/07/29 05:36:59;;;;;;;10.75;1.70;;;;;;;;;;4980512;28;20489;-74
2021/07/29 05:39:25;;;;;;;4.35;1.15;;;;;;;;;;5006179;28;20246;-74
2021/07/29 05:41:50;;;;;;;10.93;1.67;;;;;;;;;;4993131;28;20046;-74
2021/07/29 05:44:16;;;;;;;18.38;3.10;;;;;;;;;;4972206;28;20521;-77
2021/07/29 05:46:41;;;;;;;10.32;1.35;;;;;;;;;;4980927;28;20034;-78
2021/07/29 05:49:07;;;;;;;12.57;1.73;;;;;;;;;;4987794;28;20527;-77
2021/07/29 05:51:32;;;;;;;14.52;1.60;;;;;;;;;;4986138;28;20022;-78
2021/07/29 05:53:58;;;;;;;9.02;2.13;;;;;;;;;;4983893;28;20034;-78
2021/07/29 05:56:23;;;;;;;8.65;1.58;;;;;;;;;;4997438;28;20049;-77
2021/07/29 05:58:49;;;;;;;13.85;1.50;;;;;;;;;;4993405;28;20050;-76
2021/07/29 06:01:14;;;;;;;5.88;1.67;;;;;;;;;;4989098;28;20509;-77
2021/07/29 06:03:40;;;;;;;5.15;1.20;;;;;;;;;;4990703;28;20449;-78
2021/07/29 06:06:05;;;;;;;5.97;1.33;;;;;;;;;;4988682;28;20256;-76
2021/07/29 06:08:30;;;;;;;11.65;1.67;;;;;;;;;;4995277;28;20095;-77
2021/07/29 06:10:56;;;;;;;13.02;1.65;;;;;;;;;;4988918;28;20034;-78
2021/07/29 06:13:21;;;;;;;5.72;1.67;;;;;;;;;;4992555;28;20049;-77
2021/07/29 06:15:47;;;;;;;9.50;1.30;;;;;;;;;;4992789;28;20038;-76
2021/07/29 06:18:13;;;;;;;4.50;1.63;;;;;;;;;;4991749;28;20060;-76
2021/07/29 06:20:39;;;;;;;6.72;1.42;;;;;;;;;;4989455;28;20041;-77
2021/07/29 06:23:04;;;;;;;7.10;1.42;;;;;;;;;;4997479;28;20034;-78
2021/07/29 06:25:30;;;;;;;7.28;1.33;;;;;;;;;;4994614;28;20561;-78
2021/07/29 06:27:55;;;;;;;5.93;1.38;;;;;;;;;;4992474;28;20062;-78
2021/07/29 06:30:21;;;;;;;11.75;1.73;;;;;;;;;;4991842;28;20045;-76
2021/07/29 06:32:47;;;;;;;10.70;2.05;;;;;;;;;;4992725;28;20034;-76
2021/07/29 06:35:12;;;;;;;16.85;1.85;;;;;;;;;;4990937;28;20495;-76
2021/07/29 06:37:38;;;;;;;14.68;2.63;;;;;;;;;;5006552;28;20034;-76
2021/07/29 06:40:05;;;;;;;10.25;1.52;;;;;;;;;;4993581;28;20413;-76
2021/07/29 06:42:30;;;;;;;10.40;2.20;;;;;;;;;;4988822;28;20043;-76
2021/07/29 06:44:56;;;;;;;6.57;1.60;;;;;;;;;;4988223;28;20048;-76
2021/07/29 06:47:21;;;;;;;10.57;1.92;;;;;;;;;;4991719;28;20089;-73
2021/07/29 06:49:48;;;;;;;10.82;1.42;;;;;;;;;;4989037;28;20034;-74
2021/07/29 06:52:14;;;;;;;20.42;1.90;;;;;;;;;;4985421;28;20034;-74
2021/07/29 06:54:40;;;;;;;8.73;1.27;;;;;;;;;;4988095;28;20041;-73
2021/07/29 06:57:06;;;;;;;9.63;1.63;;;;;;;;;;4997516;28;20126;-73
2021/07/29 06:59:32;;;;;;;4.80;1.50;;;;;;;;;;4990343;28;20049;-74
2021/07/29 07:01:57;;;;;;;7.80;1.60;;;;;;;;;;4992025;28;20645;-75
2021/07/29 07:04:23;;;;;;;6.72;1.38;;;;;;;;;;4998551;28;20089;-73
2021/07/29 07:06:48;;;;;;;19.95;2.03;;;;;;;;;;4972589;28;20092;-74
2021/07/29 07:09:14;;;;;;;9.30;1.60;;;;;;;;;;4992599;28;20058;-74
2021/07/29 07:11:39;;;;;;;18.30;2.22;;;;;;;;;;4990556;28;20041;-75
2021/07/29 07:14:06;;;;;;;9.00;1.65;;;;;;;;;;4990650;28;20068;-74
2021/07/29 07:16:33;;;;;;;4.90;1.35;;;;;;;;;;4998256;28;20070;-75
2021/07/29 07:18:59;;;;;;;11.63;1.27;;;;;;;;;;5000801;28;20036;-76
2021/07/29 07:21:25;;;;;;;13.25;2.78;;;;;;;;;;4992412;28;20030;-75
2021/07/29 07:23:50;;;;;;;6.25;1.50;;;;;;;;;;4993611;28;20033;-74
2021/07/29 07:26:21;;;;;;;14.20;1.77;;;;;;;;;;4966781;28;20037;-74
2021/07/29 07:28:48;;;;;;;15.80;1.38;;;;;;;;;;4985484;28;20030;-73
2021/07/29 07:31:14;;;;;;;12.27;1.50;;;;;;;;;;4989862;28;20025;-75
2021/07/29 07:33:40;;;;;;;12.27;1.48;;;;;;;;;;4995037;28;20096;-74
2021/07/29 07:36:05;;;;;;;10.93;1.80;;;;;;;;;;4995331;28;20038;-74
2021/07/29 07:38:31;;;;;;;9.80;1.65;;;;;;;;;;5001076;28;20034;-74
2021/07/29 07:40:56;;;;;;;4.22;1.10;;;;;;;;;;4988103;28;20057;-75
2021/07/29 07:43:22;;;;;;;13.13;2.13;;;;;;;;;;4990377;28;20050;-74
2021/07/29 07:45:49;;;;;;;9.40;1.50;;;;;;;;;;4991759;28;20057;-75
2021/07/29 07:48:15;;;;;;;8.02;1.33;;;;;;;;;;4985688;28;20030;-73
2021/07/29 07:50:41;;;;;;;6.10;1.20;;;;;;;;;;4993570;28;20080;-74
2021/07/29 07:53:07;;;;;;;8.50;1.02;;;;;;;;;;4993911;28;20528;-74
2021/07/29 07:55:35;;;;;;;17.45;1.67;;;;;;;;;;4988420;28;20145;-73
2021/07/29 07:58:00;;;;;;;9.82;1.40;;;;;;;;;;4998904;28;20818;-73
2021/07/29 08:00:26;;;;;;;9.65;1.13;;;;;;;;;;4993852;28;20026;-74
2021/07/29 08:02:51;;;;;;;12.55;1.63;;;;;;;;;;5003817;28;20394;-74
2021/07/29 08:05:17;;;;;;;4.97;1.20;;;;;;;;;;4980453;28;20034;-74
2021/07/29 08:07:42;;;;;;;7.45;1.52;;;;;;;;;;4979695;28;20065;-75
2021/07/29 08:10:10;;;;;;;8.88;1.15;;;;;;;;;;4990396;28;20109;-74
2021/07/29 08:12:36;;;;;;;10.35;1.23;;;;;;;;;;4961390;28;20045;-75
2021/07/29 08:15:02;;;;;;;5.55;1.10;;;;;;;;;;4989145;28;20038;-77
2021/07/29 08:17:27;;;;;;;11.65;1.73;;;;;;;;;;4967506;28;20033;-78
2021/07/29 08:19:52;;;;;;;7.63;0.98;;;;;;;;;;4987713;28;20519;-79
2021/07/29 08:22:18;;;;;;;4.05;0.82;;;;;;;;;;4978366;28;20496;-79
2021/07/29 08:24:45;;;;;;;11.85;1.13;;;;;;;;;;4976856;28;20058;-78
2021/07/29 08:27:10;;;;;;;11.07;1.48;;;;;;;;;;4991121;28;20030;-81
2021/07/29 08:29:35;;;;;;;9.45;1.42;;;;;;;;;;4955598;28;20026;-80
2021/07/29 08:32:02;;;;;;;8.05;1.65;;;;;;;;;;4990436;28;20038;-80
2021/07/29 08:34:27;;;;;;;7.78;1.10;;;;;;;;;;4987699;28;20038;-79
2021/07/29 08:36:53;;;;;;;14.07;1.33;;;;;;;;;;4993690;28;20076;-79
2021/07/29 08:39:18;;;;;;;11.32;1.05;;;;;;;;;;4995056;28;20030;-80
2021/07/29 08:41:44;;;;;;;12.73;1.20;;;;;;;;;;4998986;28;20089;-79
2021/07/29 08:44:10;;;;;;;10.10;1.23;;;;;;;;;;4999105;28;20041;-76
2021/07/29 08:46:43;;;;;;;13.98;1.25;;;;;;;;;;4996494;28;20117;-74
2021/07/29 08:49:09;;;;;;;8.45;1.10;;;;;;;;;;4996318;28;20096;-76
2021/07/29 08:51:34;;;;;;;15.50;1.40;;;;;;;;;;4988119;28;20486;-75
2021/07/29 08:54:07;;;;;;;9.93;1.10;;;;;;;;;;4973826;28;20560;-75
2021/07/29 08:56:33;;;;;;;19.73;1.98;;;;;;;;;;4990792;28;20026;-76
2021/07/29 08:58:58;;;;;;;9.52;1.10;;;;;;;;;;4994747;28;20040;-76
2021/07/29 09:01:49;;;;;;;10.43;1.25;;;;;;;;;;4999026;28;20353;-73
2021/07/29 09:04:15;;;;;;;7.10;1.20;;;;;;;;;;4992527;28;20026;-75
2021/07/29 09:06:58;;;;;;;15.88;1.10;;;;;;;;;;4999844;28;20137;-75
2021/07/29 09:09:42;;;;;;;;;;;;;;;;;;4976862;28;20030;-74
2021/07/29 09:12:21;;;;;;;5.63;1.50;;;;;;;;;;4983711;28;19920;-74
2021/07/29 09:14:48;;;;;;;12.13;1.50;;;;;;;;;;4988078;28;20038;-75
2021/07/29 09:17:15;;;;;;;8.43;1.02;;;;;;;;;;4991518;28;20089;-74
2021/07/29 09:19:49;;;;;;;14.45;2.75;;;;;;;;;;4996948;28;20053;-74
2021/07/29 09:22:19;;;;;;;7.93;1.42;;;;;;;;;;4994993;28;20507;-73
2021/07/29 09:25:01;;;;;;;5.95;1.40;;;;;;;;;;4992430;28;20493;-74
2021/07/29 09:27:37;;;;;;;10.75;1.60;;;;;;;;;;4980027;28;20468;-73
2021/07/29 09:30:12;;;;;;;9.57;1.20;;;;;;;;;;4995789;28;20123;-74
2021/07/29 09:33:09;;;;;;;13.73;1.38;;;;;;;;;;5002384;28;20029;-74
2021/07/29 09:35:53;;;;;;;8.25;1.30;;;;;;;;;;5000679;28;20026;-73
2021/07/29 09:38:31;;;;;;;8.10;1.38;;;;;;;;;;4985502;28;20061;-74
2021/07/29 09:40:59;;;;;;;5.97;0.95;;;;;;;;;;4987671;28;20383;-74
2021/07/29 09:43:25;;;;;;;8.77;1.00;;;;;;;;;;4984292;28;20026;-79
2021/07/29 09:45:56;;;;;;;5.47;1.13;;;;;;;;;;5009673;28;20069;-79
2021/07/29 09:48:22;;;;;;;10.98;1.27;;;;;;;;;;4992423;28;20019;-78
2021/07/29 09:50:55;;;;;;;9.18;0.98;;;;;;;;;;4969346;28;20039;-78
2021/07/29 09:53:23;;;;;;;5.97;0.80;;;;;;;;;;4988289;28;20027;-78
2021/07/29 09:55:48;;;;;;;11.88;1.13;;;;;;;;;;4971452;28;20034;-79
2021/07/29 09:58:14;;;;;;;5.88;1.05;;;;;;;;;;4994894;28;20029;-79
2021/07/29 10:00:39;;;;;;;7.82;1.20;;;;;;;;;;4994643;28;20038;-78
2021/07/29 10:03:07;;;;;;;5.78;1.60;;;;;;;;;;4991458;28;20022;-79
2021/07/29 10:05:42;;;;;;;6.65;1.48;;;;;;;;;;4990523;28;20401;-82
2021/07/29 10:08:15;;;;;;;7.82;0.85;;;;;;;;;;5001105;28;20026;-80
2021/07/29 10:10:44;;;;;;;5.20;1.20;;;;;;;;;;4998071;28;20045;-79
2021/07/29 10:13:10;;;;;;;14.38;1.13;;;;;;;;;;4986969;28;20080;-74
2021/07/29 10:15:40;;;;;;;6.75;1.00;;;;;;;;;;4990658;28;20027;-75
2021/07/29 10:18:08;;;;;;;8.00;1.40;;;;;;;;;;4990114;28;20025;-74
2021/07/29 10:20:35;;;;;;;12.05;1.55;;;;;;;;;;4995724;28;20026;-74
2021/07/29 10:23:12;;;;;;;4.97;0.70;;;;;;;;;;4997554;28;20497;-73
2021/07/29 10:25:53;;;;;;;6.15;0.90;;;;;;;;;;4986021;28;20203;-78
2021/07/29 10:28:22;;;;;;;8.73;1.15;;;;;;;;;;4992583;28;20057;-74
2021/07/29 10:30:56;;;;;;;6.78;1.00;;;;;;;;;;5005287;28;20029;-74
2021/07/29 10:33:23;;;;;;;5.47;0.80;;;;;;;;;;4998093;28;20060;-75
2021/07/29 10:35:49;;;;;;;5.32;1.50;;;;;;;;;;4983169;28;20069;-75
2021/07/29 10:38:38;;;;;;;5.90;0.80;;;;;;;;;;4990210;28;20132;-74
2021/07/29 10:41:05;;;;;;;3.33;0.60;;;;;;;;;;4997832;28;20049;-74
2021/07/29 10:43:30;;;;;;;3.08;0.82;;;;;;;;;;5007433;28;20661;-74
2021/07/29 10:45:57;;;;;;;5.10;0.60;;;;;;;;;;4998432;28;20096;-74
2021/07/29 10:48:43;;;;;;;4.68;0.70;;;;;;;;;;4997792;28;20029;-74
2021/07/29 10:51:18;;;;;;;4.70;0.77;;;;;;;;;;4991148;28;20585;-74
2021/07/29 10:53:48;;;;;;;6.18;1.10;;;;;;;;;;4993062;28;20167;-79
2021/07/29 10:56:15;;;;;;;4.65;1.02;;;;;;;;;;5004513;28;20069;-78
2021/07/29 10:58:41;;;;;;;7.05;0.88;;;;;;;;;;4998035;28;20501;-79
2021/07/29 11:01:08;;;;;;;5.95;0.95;;;;;;;;;;5004288;28;20488;-79
2021/07/29 11:03:34;;;;;;;9.88;1.05;;;;;;;;;;4994604;28;20022;-79
2021/07/29 11:06:06;;;;;;;7.57;1.00;;;;;;;;;;5001672;28;20072;-80
2021/07/29 11:08:31;;;;;;;;;;;;;;;;;;4965109;28;20650;-76
2021/07/29 11:10:59;;;;;;;6.55;0.73;;;;;;;;;;4971523;28;19976;-78
2021/07/29 11:13:27;;;;;;;8.07;0.95;;;;;;;;;;4991140;28;20037;-77
2021/07/29 11:15:53;;;;;;;12.25;1.20;;;;;;;;;;4992640;28;20498;-77
2021/07/29 11:18:21;;;;;;;4.70;0.90;;;;;;;;;;4994317;28;20042;-77
2021/07/29 11:20:47;;;;;;;3.40;0.75;;;;;;;;;;4969537;28;20100;-77
2021/07/29 11:23:15;;;;;;;2.95;0.82;;;;;;;;;;4992133;28;20096;-75
2021/07/29 11:26:01;;;;;;;5.90;1.02;;;;;;;;;;4990915;28;20539;-73
2021/07/29 11:28:27;;;;;;;10.48;1.00;;;;;;;;;;4989485;28;20497;-74
2021/07/29 11:30:52;;;;;;;6.40;0.88;;;;;;;;;;4985721;28;20029;-73
2021/07/29 11:33:22;;;;;;;5.68;0.80;;;;;;;;;;4986723;28;20401;-75
2021/07/29 11:35:49;;;;;;;6.97;1.30;;;;;;;;;;4989523;28;20506;-74
2021/07/29 11:38:19;;;;;;;4.00;0.55;;;;;;;;;;4988477;28;20438;-74
2021/07/29 11:40:45;;;;;;;4.38;0.65;;;;;;;;;;4989430;28;20054;-74
2021/07/29 11:43:21;;;;;;;7.13;1.15;;;;;;;;;;4990333;28;21732;-74
2021/07/29 11:45:46;;;;;;;6.18;0.80;;;;;;;;;;4992232;28;20038;-75
2021/07/29 11:48:22;;;;;;;6.97;0.98;;;;;;;;;;4993909;28;20022;-73
2021/07/29 11:50:50;;;;;;;5.88;0.88;;;;;;;;;;4989100;28;20026;-75
2021/07/29 11:53:16;;;;;;;10.15;0.80;;;;;;;;;;4993522;28;20047;-74
2021/07/29 11:55:52;;;;;;;5.45;1.00;;;;;;;;;;4993949;28;20025;-75
2021/07/29 11:58:17;;;;;;;3.60;0.80;;;;;;;;;;5000090;28;20041;-74
2021/07/29 12:00:45;;;;;;;3.30;0.98;;;;;;;;;;4974813;28;20629;-74
2021/07/29 12:03:32;;;;;;;10.43;0.98;;;;;;;;;;4987584;28;20022;-74
2021/07/29 12:05:59;;;;;;;6.95;1.27;;;;;;;;;;4989102;28;20129;-74
2021/07/29 12:08:25;;;;;;;7.00;1.05;;;;;;;;;;4989326;28;20061;-74
2021/07/29 12:11:02;;;;;;;10.32;1.38;;;;;;;;;;4991582;28;20430;-74
2021/07/29 12:13:30;;;;;;;9.45;1.20;;;;;;;;;;4992466;28;20401;-74
2021/07/29 12:15:59;;;;;;;8.10;0.80;;;;;;;;;;4997998;28;20726;-74
2021/07/29 12:18:25;;;;;;;3.67;0.80;;;;;;;;;;4984718;28;20085;-74
2021/07/29 12:20:53;;;;;;;9.18;0.80;;;;;;;;;;4993654;28;20037;-74
2021/07/29 12:23:20;;;;;;;7.53;0.98;;;;;;;;;;4990183;28;20053;-74
2021/07/29 12:25:46;;;;;;;9.52;1.08;;;;;;;;;;4979852;28;20076;-74
2021/07/29 12:28:13;;;;;;;2.83;0.65;;;;;;;;;;4972481;28;20056;-74
2021/07/29 12:30:45;;;;;;;2.78;0.60;;;;;;;;;;4995670;28;20121;-74
2021/07/29 12:33:22;;;;;;;7.47;0.55;;;;;;;;;;4991671;28;20034;-73
2021/07/29 12:36:02;;;;;;;6.20;0.93;;;;;;;;;;4991676;28;20029;-74
2021/07/29 12:38:33;;;;;;;4.05;1.55;;;;;;;;;;5005610;28;20020;-74
2021/07/29 12:40:59;;;;;;;2.22;0.82;;;;;;;;;;4995720;28;20043;-74
2021/07/29 12:43:26;;;;;;;3.25;0.60;;;;;;;;;;4985704;28;20046;-75
2021/07/29 12:45:57;;;;;;;6.70;0.93;;;;;;;;;;4986914;28;20039;-74
2021/07/29 12:48:24;;;;;;;8.82;0.90;;;;;;;;;;4992913;28;20444;-73
2021/07/29 12:50:50;;;;;;;10.10;1.17;;;;;;;;;;4986300;28;20021;-74
2021/07/29 12:53:16;;;;;;;8.70;0.93;;;;;;;;;;4990620;28;20034;-74
2021/07/29 12:55:43;;;;;;;6.70;0.90;;;;;;;;;;4976216;28;20794;-74
2021/07/29 12:58:09;;;;;;;3.42;0.60;;;;;;;;;;4985114;28;20069;-74
2021/07/29 13:00:40;;;;;;;2.67;0.85;;;;;;;;;;4960703;28;20180;-75
2021/07/29 13:03:31;;;;;;;5.80;1.20;;;;;;;;;;4990184;28;20105;-75
2021/07/29 13:05:59;;;;;;;2.78;0.70;;;;;;;;;;5002984;28;20121;-75
2021/07/29 13:08:25;;;;;;;2.08;0.50;;;;;;;;;;4993605;28;20117;-74
2021/07/29 13:10:51;;;;;;;4.22;1.10;;;;;;;;;;4994639;28;20018;-74
2021/07/29 13:13:22;;;;;;;1.88;0.52;;;;;;;;;;4993657;28;20034;-75
2021/07/29 13:15:48;;;;;;;7.50;0.90;;;;;;;;;;5001635;28;20034;-75
2021/07/29 13:18:13;;;;;;;6.32;1.25;;;;;;;;;;5002328;28;20036;-75
2021/07/29 13:20:39;;;;;;;10.82;0.65;;;;;;;;;;4995356;28;20041;-74
2021/07/29 13:23:04;;;;;;;6.28;0.85;;;;;;;;;;4986491;28;20041;-75
2021/07/29 13:25:29;;;;;;;3.10;0.82;;;;;;;;;;4989827;28;20042;-75
2021/07/29 13:27:55;;;;;;;9.20;0.82;;;;;;;;;;4976082;28;20444;-74
2021/07/29 13:30:20;;;;;;;3.55;0.45;;;;;;;;;;4992613;28;21136;-75
2021/07/29 13:32:46;;;;;;;5.03;0.77;;;;;;;;;;4982946;28;20096;-74
2021/07/29 13:35:11;;;;;;;7.40;0.80;;;;;;;;;;4996066;28;20034;-73
2021/07/29 13:37:39;;;;;;;11.13;0.82;;;;;;;;;;4993350;28;20059;-74
2021/07/29 13:40:05;;;;;;;4.65;0.73;;;;;;;;;;4995429;28;20034;-74
2021/07/29 13:42:32;;;;;;;9.65;0.98;;;;;;;;;;4998466;28;20049;-74
2021/07/29 13:45:16;;;;;;;2.70;0.90;;;;;;;;;;4994603;28;20058;-74
2021/07/29 13:47:45;;;;;;;11.55;1.83;;;;;;;;;;4983963;28;20117;-74
2021/07/29 13:50:10;;;;;;;5.50;1.00;;;;;;;;;;4988510;28;20099;-73
2021/07/29 13:52:36;;;;;;;3.90;1.08;;;;;;;;;;4991903;28;20022;-78
2021/07/29 13:55:02;;;;;;;5.85;0.90;;;;;;;;;;4992791;28;20046;-77
2021/07/29 13:57:28;;;;;;;8.10;1.30;;;;;;;;;;4988177;28;20460;-77
2021/07/29 13:59:54;;;;;;;6.28;1.00;;;;;;;;;;4986068;28;20038;-76
2021/07/29 14:02:20;;;;;;;9.35;2.30;;;;;;;;;;4996010;28;20037;-78
2021/07/29 14:04:45;;;;;;;6.90;1.05;;;;;;;;;;4970232;28;20042;-76
2021/07/29 14:07:11;;;;;;;1.77;0.82;;;;;;;;;;4986191;28;20030;-78
2021/07/29 14:09:36;;;;;;;4.88;0.98;;;;;;;;;;4976747;28;20038;-78
2021/07/29 14:12:02;;;;;;;6.88;1.35;;;;;;;;;;4988827;28;20035;-77
2021/07/29 14:14:28;;;;;;;6.95;1.45;;;;;;;;;;4996410;28;21830;-78
2021/07/29 14:16:55;;;;;;;4.18;1.10;;;;;;;;;;4996100;28;20042;-78
2021/07/29 14:19:30;;;;;;;7.70;1.10;;;;;;;;;;4996895;28;20112;-78
2021/07/29 14:24:24;;;;;;;2.28;1.00;;;;;;;;;;4993678;28;20045;-75
2021/07/29 14:26:49;;;;;;;3.50;0.98;;;;;;;;;;4992496;28;20034;-75
2021/07/29 14:29:15;;;;;;;11.77;1.35;;;;;;;;;;4991929;28;20064;-76
2021/07/29 14:31:41;;;;;;;8.23;0.88;;;;;;;;;;4991315;28;20401;-76
2021/07/29 14:34:07;;;;;;;5.75;0.93;;;;;;;;;;4992703;28;20042;-76
2021/07/29 14:36:33;;;;;;;5.43;1.27;;;;;;;;;;4978826;28;20557;-76
2021/07/29 14:38:58;;;;;;;8.68;1.00;;;;;;;;;;4978871;28;20041;-76
2021/07/29 14:41:23;;;;;;;6.68;0.80;;;;;;;;;;4988776;28;20415;-75
2021/07/29 14:43:49;;;;;;;2.08;0.45;;;;;;;;;;4992350;28;20058;-75
2021/07/29 14:51:15;;;;;;;3.30;0.30;;;;;;;;;;4987308;28;20022;-76